sensor_id;sensor_type;location;lat;lon;timestamp;temperature;humidity
13808;DHT22;40769;51.512;5.494;2022-09-02T00:01:38;19.40;88.90
13808;DHT22;40769;51.512;5.494;2022-09-02T00:04:17;19.60;89.70
13808;DHT22;40769;51.512;5.494;2022-09-02T00:06:44;19.50;89.90
13808;DHT22;40769;51.512;5.494;2022-09-02T00:09:13;19.50;89.60
13808;DHT22;40769;51.512;5.494;2022-09-02T00:11:41;19.50;89.90
13808;DHT22;40769;51.512;5.494;2022-09-02T00:14:12;19.50;90.00
13808;DHT22;40769;51.512;5.494;2022-09-02T00:16:38;19.50;90.10
13808;DHT22;40769;51.512;5.494;2022-09-02T00:19:06;19.50;90.20
13808;DHT22;40769;51.512;5.494;2022-09-02T00:21:33;19.50;90.30
13808;DHT22;40769;51.512;5.494;2022-09-02T00:24:00;19.50;90.30
13808;DHT22;40769;51.512;5.494;2022-09-02T00:26:26;19.40;90.40
13808;DHT22;40769;51.512;5.494;2022-09-02T00:28:52;19.40;90.40
13808;DHT22;40769;51.512;5.494;2022-09-02T00:31:18;19.70;90.70
13808;DHT22;40769;51.512;5.494;2022-09-02T00:33:44;19.30;90.50
13808;DHT22;40769;51.512;5.494;2022-09-02T00:36:10;19.30;90.60
13808;DHT22;40769;51.512;5.494;2022-09-02T00:38:37;19.30;90.80
13808;DHT22;40769;51.512;5.494;2022-09-02T00:41:07;19.30;90.90
13808;DHT22;40769;51.512;5.494;2022-09-02T00:43:48;19.20;90.90
13808;DHT22;40769;51.512;5.494;2022-09-02T00:46:15;19.20;91.30
13808;DHT22;40769;51.512;5.494;2022-09-02T00:48:55;19.20;91.10
13808;DHT22;40769;51.512;5.494;2022-09-02T00:51:22;19.20;91.50
13808;DHT22;40769;51.512;5.494;2022-09-02T00:53:48;19.10;91.20
13808;DHT22;40769;51.512;5.494;2022-09-02T00:56:21;19.20;91.30
13808;DHT22;40769;51.512;5.494;2022-09-02T00:58:49;19.20;91.60
13808;DHT22;40769;51.512;5.494;2022-09-02T01:01:16;19.10;91.60
13808;DHT22;40769;51.512;5.494;2022-09-02T01:03:42;19.60;91.80
13808;DHT22;40769;51.512;5.494;2022-09-02T01:06:10;19.10;91.70
13808;DHT22;40769;51.512;5.494;2022-09-02T01:08:42;19.10;91.90
13808;DHT22;40769;51.512;5.494;2022-09-02T01:11:08;19.00;91.90
13808;DHT22;40769;51.512;5.494;2022-09-02T01:13:41;19.00;92.00
13808;DHT22;40769;51.512;5.494;2022-09-02T01:16:10;19.00;92.10
13808;DHT22;40769;51.512;5.494;2022-09-02T01:18:38;19.00;92.20
13808;DHT22;40769;51.512;5.494;2022-09-02T01:21:05;18.90;92.20
13808;DHT22;40769;51.512;5.494;2022-09-02T01:23:31;18.90;92.40
13808;DHT22;40769;51.512;5.494;2022-09-02T01:25:58;18.90;92.60
13808;DHT22;40769;51.512;5.494;2022-09-02T01:28:24;18.90;92.60
13808;DHT22;40769;51.512;5.494;2022-09-02T01:30:52;18.90;92.80
13808;DHT22;40769;51.512;5.494;2022-09-02T01:33:20;18.80;92.90
13808;DHT22;40769;51.512;5.494;2022-09-02T01:35:46;18.80;92.80
13808;DHT22;40769;51.512;5.494;2022-09-02T01:38:12;18.80;92.90
13808;DHT22;40769;51.512;5.494;2022-09-02T01:40:38;18.80;92.80
13808;DHT22;40769;51.512;5.494;2022-09-02T01:43:14;18.70;93.00
13808;DHT22;40769;51.512;5.494;2022-09-02T01:45:42;18.70;93.10
13808;DHT22;40769;51.512;5.494;2022-09-02T01:48:09;18.60;93.10
13808;DHT22;40769;51.512;5.494;2022-09-02T01:50:37;18.60;93.20
13808;DHT22;40769;51.512;5.494;2022-09-02T01:53:03;18.60;93.30
13808;DHT22;40769;51.512;5.494;2022-09-02T01:55:30;18.50;93.40
13808;DHT22;40769;51.512;5.494;2022-09-02T01:57:56;18.50;93.50
13808;DHT22;40769;51.512;5.494;2022-09-02T02:00:22;18.50;93.60
13808;DHT22;40769;51.512;5.494;2022-09-02T02:02:48;18.50;93.60
13808;DHT22;40769;51.512;5.494;2022-09-02T02:05:13;18.50;93.70
13808;DHT22;40769;51.512;5.494;2022-09-02T02:07:41;18.60;93.70
13808;DHT22;40769;51.512;5.494;2022-09-02T02:10:08;18.50;93.80
13808;DHT22;40769;51.512;5.494;2022-09-02T02:12:35;18.40;93.90
13808;DHT22;40769;51.512;5.494;2022-09-02T02:15:08;18.30;93.80
13808;DHT22;40769;51.512;5.494;2022-09-02T02:17:36;18.30;94.30
13808;DHT22;40769;51.512;5.494;2022-09-02T02:20:03;18.30;94.20
13808;DHT22;40769;51.512;5.494;2022-09-02T02:22:29;18.20;94.50
13808;DHT22;40769;51.512;5.494;2022-09-02T02:24:55;18.20;94.60
13808;DHT22;40769;51.512;5.494;2022-09-02T02:27:21;18.20;94.70
13808;DHT22;40769;51.512;5.494;2022-09-02T02:29:46;18.20;94.90
13808;DHT22;40769;51.512;5.494;2022-09-02T02:32:12;18.20;95.10
13808;DHT22;40769;51.512;5.494;2022-09-02T02:34:38;18.20;95.30
13808;DHT22;40769;51.512;5.494;2022-09-02T02:37:04;18.20;95.50
13808;DHT22;40769;51.512;5.494;2022-09-02T02:39:30;18.20;95.60
13808;DHT22;40769;51.512;5.494;2022-09-02T02:41:56;18.20;95.70
13808;DHT22;40769;51.512;5.494;2022-09-02T02:44:21;18.20;95.70
13808;DHT22;40769;51.512;5.494;2022-09-02T02:46:48;18.20;95.90
13808;DHT22;40769;51.512;5.494;2022-09-02T02:49:13;18.30;96.10
13808;DHT22;40769;51.512;5.494;2022-09-02T02:51:39;18.30;96.20
13808;DHT22;40769;51.512;5.494;2022-09-02T02:54:05;18.30;96.10
13808;DHT22;40769;51.512;5.494;2022-09-02T02:56:31;18.30;96.20
13808;DHT22;40769;51.512;5.494;2022-09-02T02:58:58;18.30;96.30
13808;DHT22;40769;51.512;5.494;2022-09-02T03:01:29;18.30;96.20
13808;DHT22;40769;51.512;5.494;2022-09-02T03:03:56;18.30;96.10
13808;DHT22;40769;51.512;5.494;2022-09-02T03:06:23;18.30;96.00
13808;DHT22;40769;51.512;5.494;2022-09-02T03:08:49;18.30;96.00
13808;DHT22;40769;51.512;5.494;2022-09-02T03:11:15;18.30;96.00
13808;DHT22;40769;51.512;5.494;2022-09-02T03:13:42;18.30;96.00
13808;DHT22;40769;51.512;5.494;2022-09-02T03:16:07;18.30;96.10
13808;DHT22;40769;51.512;5.494;2022-09-02T03:18:33;18.30;96.10
13808;DHT22;40769;51.512;5.494;2022-09-02T03:20:59;18.30;96.20
13808;DHT22;40769;51.512;5.494;2022-09-02T03:23:26;18.30;96.20
13808;DHT22;40769;51.512;5.494;2022-09-02T03:25:51;18.30;96.20
13808;DHT22;40769;51.512;5.494;2022-09-02T03:28:17;18.30;96.20
13808;DHT22;40769;51.512;5.494;2022-09-02T03:30:44;18.30;96.30
13808;DHT22;40769;51.512;5.494;2022-09-02T03:33:10;18.30;96.30
13808;DHT22;40769;51.512;5.494;2022-09-02T03:35:41;18.30;96.30
13808;DHT22;40769;51.512;5.494;2022-09-02T03:38:08;18.30;96.20
13808;DHT22;40769;51.512;5.494;2022-09-02T03:40:37;18.30;96.10
13808;DHT22;40769;51.512;5.494;2022-09-02T03:43:03;18.30;96.10
13808;DHT22;40769;51.512;5.494;2022-09-02T03:45:29;18.20;96.20
13808;DHT22;40769;51.512;5.494;2022-09-02T03:47:55;18.20;96.20
13808;DHT22;40769;51.512;5.494;2022-09-02T03:50:34;18.20;96.30
13808;DHT22;40769;51.512;5.494;2022-09-02T03:53:01;18.20;96.60
13808;DHT22;40769;51.512;5.494;2022-09-02T03:55:27;18.20;96.40
13808;DHT22;40769;51.512;5.494;2022-09-02T03:57:53;18.20;96.40
13808;DHT22;40769;51.512;5.494;2022-09-02T04:00:22;18.20;96.40
13808;DHT22;40769;51.512;5.494;2022-09-02T04:02:50;18.10;96.40
13808;DHT22;40769;51.512;5.494;2022-09-02T04:05:16;18.10;96.50
13808;DHT22;40769;51.512;5.494;2022-09-02T04:07:42;18.10;96.90
13808;DHT22;40769;51.512;5.494;2022-09-02T04:10:09;18.10;96.60
13808;DHT22;40769;51.512;5.494;2022-09-02T04:12:36;18.10;96.70
13808;DHT22;40769;51.512;5.494;2022-09-02T04:15:05;18.10;96.70
13808;DHT22;40769;51.512;5.494;2022-09-02T04:17:31;18.10;96.80
13808;DHT22;40769;51.512;5.494;2022-09-02T04:19:59;18.10;96.80
13808;DHT22;40769;51.512;5.494;2022-09-02T04:22:25;18.10;96.90
13808;DHT22;40769;51.512;5.494;2022-09-02T04:24:50;18.10;97.00
13808;DHT22;40769;51.512;5.494;2022-09-02T04:27:16;18.00;97.10
13808;DHT22;40769;51.512;5.494;2022-09-02T04:29:42;18.10;97.20
13808;DHT22;40769;51.512;5.494;2022-09-02T04:32:07;18.10;97.20
13808;DHT22;40769;51.512;5.494;2022-09-02T04:34:33;18.10;97.30
13808;DHT22;40769;51.512;5.494;2022-09-02T04:36:58;18.10;97.30
13808;DHT22;40769;51.512;5.494;2022-09-02T04:39:24;18.10;97.40
13808;DHT22;40769;51.512;5.494;2022-09-02T04:41:49;18.10;97.40
13808;DHT22;40769;51.512;5.494;2022-09-02T04:44:15;18.10;97.50
13808;DHT22;40769;51.512;5.494;2022-09-02T04:46:41;18.60;97.70
13808;DHT22;40769;51.512;5.494;2022-09-02T04:49:07;18.10;97.60
13808;DHT22;40769;51.512;5.494;2022-09-02T04:51:33;18.20;97.70
13808;DHT22;40769;51.512;5.494;2022-09-02T04:53:59;18.20;97.80
13808;DHT22;40769;51.512;5.494;2022-09-02T04:56:27;18.30;97.90
13808;DHT22;40769;51.512;5.494;2022-09-02T04:58:53;18.30;97.90
13808;DHT22;40769;51.512;5.494;2022-09-02T05:01:22;18.30;97.90
13808;DHT22;40769;51.512;5.494;2022-09-02T05:03:48;18.30;98.00
13808;DHT22;40769;51.512;5.494;2022-09-02T05:06:17;18.40;98.00
13808;DHT22;40769;51.512;5.494;2022-09-02T05:08:44;18.50;98.00
13808;DHT22;40769;51.512;5.494;2022-09-02T05:11:15;18.60;98.10
13808;DHT22;40769;51.512;5.494;2022-09-02T05:13:45;18.70;98.00
13808;DHT22;40769;51.512;5.494;2022-09-02T05:16:16;18.70;97.90
13808;DHT22;40769;51.512;5.494;2022-09-02T05:18:42;18.70;97.90
13808;DHT22;40769;51.512;5.494;2022-09-02T05:21:07;18.70;97.90
13808;DHT22;40769;51.512;5.494;2022-09-02T05:23:33;18.80;97.80
13808;DHT22;40769;51.512;5.494;2022-09-02T05:26:03;18.80;98.20
13808;DHT22;40769;51.512;5.494;2022-09-02T05:28:29;18.90;97.90
13808;DHT22;40769;51.512;5.494;2022-09-02T05:31:09;18.90;97.90
13808;DHT22;40769;51.512;5.494;2022-09-02T05:33:35;18.90;97.90
13808;DHT22;40769;51.512;5.494;2022-09-02T05:36:07;18.90;97.90
13808;DHT22;40769;51.512;5.494;2022-09-02T05:38:33;19.00;98.00
13808;DHT22;40769;51.512;5.494;2022-09-02T05:41:06;18.90;97.90
13808;DHT22;40769;51.512;5.494;2022-09-02T05:43:36;19.20;98.10
13808;DHT22;40769;51.512;5.494;2022-09-02T05:46:04;19.10;98.10
13808;DHT22;40769;51.512;5.494;2022-09-02T05:48:31;19.10;98.10
13808;DHT22;40769;51.512;5.494;2022-09-02T05:51:15;19.30;98.10
13808;DHT22;40769;51.512;5.494;2022-09-02T05:53:40;19.20;98.10
13808;DHT22;40769;51.512;5.494;2022-09-02T05:56:06;19.30;98.00
13808;DHT22;40769;51.512;5.494;2022-09-02T05:58:32;19.30;98.00
13808;DHT22;40769;51.512;5.494;2022-09-02T06:00:57;19.30;98.00
13808;DHT22;40769;51.512;5.494;2022-09-02T06:03:23;19.40;97.90
13808;DHT22;40769;51.512;5.494;2022-09-02T06:05:54;19.40;98.00
13808;DHT22;40769;51.512;5.494;2022-09-02T06:08:20;19.40;98.10
13808;DHT22;40769;51.512;5.494;2022-09-02T06:10:46;19.50;98.10
13808;DHT22;40769;51.512;5.494;2022-09-02T06:13:11;19.50;98.10
13808;DHT22;40769;51.512;5.494;2022-09-02T06:15:49;19.60;98.10
13808;DHT22;40769;51.512;5.494;2022-09-02T06:18:16;19.70;98.20
13808;DHT22;40769;51.512;5.494;2022-09-02T06:20:43;19.70;98.10
13808;DHT22;40769;51.512;5.494;2022-09-02T06:23:10;19.70;98.10
13808;DHT22;40769;51.512;5.494;2022-09-02T06:25:40;19.80;98.00
13808;DHT22;40769;51.512;5.494;2022-09-02T06:28:06;19.80;97.90
13808;DHT22;40769;51.512;5.494;2022-09-02T06:30:32;19.80;97.90
13808;DHT22;40769;51.512;5.494;2022-09-02T06:32:58;19.90;97.90
13808;DHT22;40769;51.512;5.494;2022-09-02T06:35:24;20.00;98.00
13808;DHT22;40769;51.512;5.494;2022-09-02T06:37:50;20.00;97.90
13808;DHT22;40769;51.512;5.494;2022-09-02T06:40:15;20.00;98.30
13808;DHT22;40769;51.512;5.494;2022-09-02T06:42:42;20.10;98.00
13808;DHT22;40769;51.512;5.494;2022-09-02T06:45:08;20.10;97.90
13808;DHT22;40769;51.512;5.494;2022-09-02T06:47:34;20.20;97.90
13808;DHT22;40769;51.512;5.494;2022-09-02T06:50:00;20.20;98.00
13808;DHT22;40769;51.512;5.494;2022-09-02T06:52:25;20.30;98.00
13808;DHT22;40769;51.512;5.494;2022-09-02T06:54:58;20.30;98.00
13808;DHT22;40769;51.512;5.494;2022-09-02T06:57:24;20.40;98.00
13808;DHT22;40769;51.512;5.494;2022-09-02T06:59:50;20.40;97.80
13808;DHT22;40769;51.512;5.494;2022-09-02T07:02:16;20.50;97.90
13808;DHT22;40769;51.512;5.494;2022-09-02T07:04:41;20.50;98.00
13808;DHT22;40769;51.512;5.494;2022-09-02T07:07:25;20.60;98.00
13808;DHT22;40769;51.512;5.494;2022-09-02T07:09:52;20.60;97.90
13808;DHT22;40769;51.512;5.494;2022-09-02T07:12:20;20.70;97.90
13808;DHT22;40769;51.512;5.494;2022-09-02T07:14:46;20.80;97.90
13808;DHT22;40769;51.512;5.494;2022-09-02T07:17:13;20.90;98.00
13808;DHT22;40769;51.512;5.494;2022-09-02T07:19:46;21.00;97.90
13808;DHT22;40769;51.512;5.494;2022-09-02T07:22:12;21.10;97.90
13808;DHT22;40769;51.512;5.494;2022-09-02T07:24:38;21.20;97.80
13808;DHT22;40769;51.512;5.494;2022-09-02T07:27:04;21.30;97.70
13808;DHT22;40769;51.512;5.494;2022-09-02T07:29:31;21.30;97.70
13808;DHT22;40769;51.512;5.494;2022-09-02T07:31:57;21.40;97.50
13808;DHT22;40769;51.512;5.494;2022-09-02T07:34:25;21.50;97.30
13808;DHT22;40769;51.512;5.494;2022-09-02T07:36:54;21.60;97.20
13808;DHT22;40769;51.512;5.494;2022-09-02T07:39:20;21.70;97.20
13808;DHT22;40769;51.512;5.494;2022-09-02T07:41:48;21.80;97.20
13808;DHT22;40769;51.512;5.494;2022-09-02T07:44:16;21.80;97.10
13808;DHT22;40769;51.512;5.494;2022-09-02T07:46:42;21.90;97.10
13808;DHT22;40769;51.512;5.494;2022-09-02T07:49:09;22.00;97.40
13808;DHT22;40769;51.512;5.494;2022-09-02T07:51:38;22.10;96.80
13808;DHT22;40769;51.512;5.494;2022-09-02T07:54:05;22.10;96.70
13808;DHT22;40769;51.512;5.494;2022-09-02T07:56:31;22.20;96.50
13808;DHT22;40769;51.512;5.494;2022-09-02T07:58:57;22.40;96.60
13808;DHT22;40769;51.512;5.494;2022-09-02T08:01:23;22.40;96.60
13808;DHT22;40769;51.512;5.494;2022-09-02T08:03:49;22.50;96.60
13808;DHT22;40769;51.512;5.494;2022-09-02T08:06:18;22.60;96.70
13808;DHT22;40769;51.512;5.494;2022-09-02T08:08:45;22.70;96.40
13808;DHT22;40769;51.512;5.494;2022-09-02T08:11:10;22.80;96.40
13808;DHT22;40769;51.512;5.494;2022-09-02T08:13:37;22.90;96.30
13808;DHT22;40769;51.512;5.494;2022-09-02T08:16:03;23.00;96.40
13808;DHT22;40769;51.512;5.494;2022-09-02T08:18:30;23.10;96.20
13808;DHT22;40769;51.512;5.494;2022-09-02T08:20:56;23.20;96.00
13808;DHT22;40769;51.512;5.494;2022-09-02T08:23:22;23.40;96.00
13808;DHT22;40769;51.512;5.494;2022-09-02T08:25:47;23.40;95.80
13808;DHT22;40769;51.512;5.494;2022-09-02T08:28:13;23.50;95.80
13808;DHT22;40769;51.512;5.494;2022-09-02T08:30:39;23.60;95.70
13808;DHT22;40769;51.512;5.494;2022-09-02T08:33:05;23.70;95.60
13808;DHT22;40769;51.512;5.494;2022-09-02T08:35:31;23.90;95.50
13808;DHT22;40769;51.512;5.494;2022-09-02T08:37:57;24.00;95.40
13808;DHT22;40769;51.512;5.494;2022-09-02T08:40:29;24.10;95.20
13808;DHT22;40769;51.512;5.494;2022-09-02T08:42:55;24.20;95.00
13808;DHT22;40769;51.512;5.494;2022-09-02T08:45:29;24.30;95.00
13808;DHT22;40769;51.512;5.494;2022-09-02T08:48:18;24.40;94.70
13808;DHT22;40769;51.512;5.494;2022-09-02T08:50:46;24.50;94.60
13808;DHT22;40769;51.512;5.494;2022-09-02T08:53:33;24.70;94.70
13808;DHT22;40769;51.512;5.494;2022-09-02T08:56:02;24.80;94.30
13808;DHT22;40769;51.512;5.494;2022-09-02T08:58:37;24.90;94.30
13808;DHT22;40769;51.512;5.494;2022-09-02T09:06:33;25.30;93.90
13808;DHT22;40769;51.512;5.494;2022-09-02T09:11:45;25.40;93.50
13808;DHT22;40769;51.512;5.494;2022-09-02T09:14:31;25.50;93.40
13808;DHT22;40769;51.512;5.494;2022-09-02T09:17:16;25.60;93.70
13808;DHT22;40769;51.512;5.494;2022-09-02T09:19:54;25.70;93.00
13808;DHT22;40769;51.512;5.494;2022-09-02T09:22:41;25.90;92.70
13808;DHT22;40769;51.512;5.494;2022-09-02T09:25:11;26.00;92.30
13808;DHT22;40769;51.512;5.494;2022-09-02T09:27:38;26.10;92.40
13808;DHT22;40769;51.512;5.494;2022-09-02T09:30:06;26.20;92.20
13808;DHT22;40769;51.512;5.494;2022-09-02T09:32:35;26.30;92.10
13808;DHT22;40769;51.512;5.494;2022-09-02T09:35:11;26.50;91.90
13808;DHT22;40769;51.512;5.494;2022-09-02T09:37:38;26.50;91.30
13808;DHT22;40769;51.512;5.494;2022-09-02T09:45:47;26.80;90.80
13808;DHT22;40769;51.512;5.494;2022-09-02T09:53:22;27.30;89.60
13808;DHT22;40769;51.512;5.494;2022-09-02T09:55:57;27.40;89.90
13808;DHT22;40769;51.512;5.494;2022-09-02T09:58:33;27.50;88.50
13808;DHT22;40769;51.512;5.494;2022-09-02T10:01:11;27.70;88.10
13808;DHT22;40769;51.512;5.494;2022-09-02T10:03:41;27.70;86.50
13808;DHT22;40769;51.512;5.494;2022-09-02T10:09:01;28.00;86.70
13808;DHT22;40769;51.512;5.494;2022-09-02T10:11:30;28.20;87.40
13808;DHT22;40769;51.512;5.494;2022-09-02T10:14:09;28.40;87.40
13808;DHT22;40769;51.512;5.494;2022-09-02T10:16:50;28.60;86.40
13808;DHT22;40769;51.512;5.494;2022-09-02T10:19:19;28.90;86.20
13808;DHT22;40769;51.512;5.494;2022-09-02T10:21:54;29.10;86.10
13808;DHT22;40769;51.512;5.494;2022-09-02T10:27:06;29.60;83.30
13808;DHT22;40769;51.512;5.494;2022-09-02T10:29:46;29.80;81.70
13808;DHT22;40769;51.512;5.494;2022-09-02T10:35:08;30.20;78.00
13808;DHT22;40769;51.512;5.494;2022-09-02T10:40:25;30.70;76.70
13808;DHT22;40769;51.512;5.494;2022-09-02T10:45:45;31.00;77.80
13808;DHT22;40769;51.512;5.494;2022-09-02T10:48:32;31.20;75.70
13808;DHT22;40769;51.512;5.494;2022-09-02T11:00:13;32.00;71.40
13808;DHT22;40769;51.512;5.494;2022-09-02T11:03:11;32.10;70.10
13808;DHT22;40769;51.512;5.494;2022-09-02T11:05:53;32.30;67.30
13808;DHT22;40769;51.512;5.494;2022-09-02T11:08:38;32.30;66.90
13808;DHT22;40769;51.512;5.494;2022-09-02T11:19:54;32.50;64.90
13808;DHT22;40769;51.512;5.494;2022-09-02T11:23:12;32.60;65.50
13808;DHT22;40769;51.512;5.494;2022-09-02T11:25:31;32.60;65.10
13808;DHT22;40769;51.512;5.494;2022-09-02T11:30:44;32.80;65.40
13808;DHT22;40769;51.512;5.494;2022-09-02T11:33:22;32.90;63.60
13808;DHT22;40769;51.512;5.494;2022-09-02T11:35:51;33.00;63.60
13808;DHT22;40769;51.512;5.494;2022-09-02T11:38:36;33.00;62.50
13808;DHT22;40769;51.512;5.494;2022-09-02T11:53:03;33.70;60.00
13808;DHT22;40769;51.512;5.494;2022-09-02T11:55:31;33.90;58.10
13808;DHT22;40769;51.512;5.494;2022-09-02T11:57:58;33.80;58.50
13808;DHT22;40769;51.512;5.494;2022-09-02T12:00:33;33.80;58.50
13808;DHT22;40769;51.512;5.494;2022-09-02T12:10:56;33.50;55.70
13808;DHT22;40769;51.512;5.494;2022-09-02T12:13:43;33.50;56.60
13808;DHT22;40769;51.512;5.494;2022-09-02T12:21:21;33.20;55.80
13808;DHT22;40769;51.512;5.494;2022-09-02T12:28:49;32.70;55.90
13808;DHT22;40769;51.512;5.494;2022-09-02T12:36:57;32.70;56.10
13808;DHT22;40769;51.512;5.494;2022-09-02T12:47:25;33.40;54.40
13808;DHT22;40769;51.512;5.494;2022-09-02T12:50:09;33.50;54.70
13808;DHT22;40769;51.512;5.494;2022-09-02T12:52:49;33.60;54.30
13808;DHT22;40769;51.512;5.494;2022-09-02T12:55:26;33.80;53.90
13808;DHT22;40769;51.512;5.494;2022-09-02T12:58:03;33.90;53.90
13808;DHT22;40769;51.512;5.494;2022-09-02T13:01:11;34.00;53.70
13808;DHT22;40769;51.512;5.494;2022-09-02T13:04:01;34.10;54.50
13808;DHT22;40769;51.512;5.494;2022-09-02T13:06:42;34.20;53.00
13808;DHT22;40769;51.512;5.494;2022-09-02T13:09:22;34.30;53.50
13808;DHT22;40769;51.512;5.494;2022-09-02T13:12:17;34.30;52.80
13808;DHT22;40769;51.512;5.494;2022-09-02T13:18:31;34.40;52.00
13808;DHT22;40769;51.512;5.494;2022-09-02T13:23:48;34.40;52.20
13808;DHT22;40769;51.512;5.494;2022-09-02T13:26:31;34.50;51.80
13808;DHT22;40769;51.512;5.494;2022-09-02T13:31:41;34.40;51.30
13808;DHT22;40769;51.512;5.494;2022-09-02T13:34:11;34.40;51.40
13808;DHT22;40769;51.512;5.494;2022-09-02T13:36:44;34.50;51.20
13808;DHT22;40769;51.512;5.494;2022-09-02T13:39:24;34.50;51.60
13808;DHT22;40769;51.512;5.494;2022-09-02T13:41:50;34.50;51.30
13808;DHT22;40769;51.512;5.494;2022-09-02T13:44:34;34.50;51.40
13808;DHT22;40769;51.512;5.494;2022-09-02T13:47:14;34.50;50.60
13808;DHT22;40769;51.512;5.494;2022-09-02T13:49:48;34.40;50.60
13808;DHT22;40769;51.512;5.494;2022-09-02T13:52:20;34.40;50.60
13808;DHT22;40769;51.512;5.494;2022-09-02T13:54:52;34.30;50.30
13808;DHT22;40769;51.512;5.494;2022-09-02T13:57:22;34.30;50.60
13808;DHT22;40769;51.512;5.494;2022-09-02T13:59:51;34.20;51.00
13808;DHT22;40769;51.512;5.494;2022-09-02T14:02:27;34.20;51.20
13808;DHT22;40769;51.512;5.494;2022-09-02T14:05:06;34.20;51.20
13808;DHT22;40769;51.512;5.494;2022-09-02T14:07:49;34.30;50.60
13808;DHT22;40769;51.512;5.494;2022-09-02T14:10:18;34.40;50.50
13808;DHT22;40769;51.512;5.494;2022-09-02T14:12:45;34.40;50.90
13808;DHT22;40769;51.512;5.494;2022-09-02T14:15:16;34.30;50.40
13808;DHT22;40769;51.512;5.494;2022-09-02T14:20:50;33.90;50.20
13808;DHT22;40769;51.512;5.494;2022-09-02T14:23:17;33.70;49.80
13808;DHT22;40769;51.512;5.494;2022-09-02T14:25:56;33.60;50.50
13808;DHT22;40769;51.512;5.494;2022-09-02T14:28:24;33.50;51.20
13808;DHT22;40769;51.512;5.494;2022-09-02T14:31:05;33.60;51.50
13808;DHT22;40769;51.512;5.494;2022-09-02T14:33:40;33.70;51.30
13808;DHT22;40769;51.512;5.494;2022-09-02T14:36:12;33.90;51.50
13808;DHT22;40769;51.512;5.494;2022-09-02T14:38:55;34.10;51.40
13808;DHT22;40769;51.512;5.494;2022-09-02T14:41:26;34.30;51.30
13808;DHT22;40769;51.512;5.494;2022-09-02T14:44:36;34.40;51.00
13808;DHT22;40769;51.512;5.494;2022-09-02T14:46:49;34.50;50.60
13808;DHT22;40769;51.512;5.494;2022-09-02T14:49:19;34.70;50.90
13808;DHT22;40769;51.512;5.494;2022-09-02T14:51:50;34.80;50.10
13808;DHT22;40769;51.512;5.494;2022-09-02T14:56:58;34.90;48.90
13808;DHT22;40769;51.512;5.494;2022-09-02T14:59:24;35.00;49.50
13808;DHT22;40769;51.512;5.494;2022-09-02T15:01:52;35.00;49.50
13808;DHT22;40769;51.512;5.494;2022-09-02T15:04:19;34.90;49.50
13808;DHT22;40769;51.512;5.494;2022-09-02T15:06:46;34.90;49.90
13808;DHT22;40769;51.512;5.494;2022-09-02T15:09:13;34.90;49.80
13808;DHT22;40769;51.512;5.494;2022-09-02T15:11:41;34.90;49.40
13808;DHT22;40769;51.512;5.494;2022-09-02T15:14:08;34.80;48.70
13808;DHT22;40769;51.512;5.494;2022-09-02T15:16:36;34.70;49.10
13808;DHT22;40769;51.512;5.494;2022-09-02T15:19:01;34.60;48.80
13808;DHT22;40769;51.512;5.494;2022-09-02T15:21:27;34.60;48.80
13808;DHT22;40769;51.512;5.494;2022-09-02T15:23:53;34.60;49.00
13808;DHT22;40769;51.512;5.494;2022-09-02T15:26:18;34.50;48.80
13808;DHT22;40769;51.512;5.494;2022-09-02T15:28:44;34.40;48.60
13808;DHT22;40769;51.512;5.494;2022-09-02T15:31:10;34.30;48.60
13808;DHT22;40769;51.512;5.494;2022-09-02T15:33:35;34.20;48.30
13808;DHT22;40769;51.512;5.494;2022-09-02T15:36:10;34.10;48.70
13808;DHT22;40769;51.512;5.494;2022-09-02T15:38:36;33.90;48.80
13808;DHT22;40769;51.512;5.494;2022-09-02T15:43:40;33.80;48.90
13808;DHT22;40769;51.512;5.494;2022-09-02T15:48:44;33.80;48.80
13808;DHT22;40769;51.512;5.494;2022-09-02T15:51:11;33.80;48.90
13808;DHT22;40769;51.512;5.494;2022-09-02T15:53:37;33.80;49.30
13808;DHT22;40769;51.512;5.494;2022-09-02T15:56:03;33.80;49.20
13808;DHT22;40769;51.512;5.494;2022-09-02T15:58:31;33.90;49.40
13808;DHT22;40769;51.512;5.494;2022-09-02T16:01:03;33.90;49.60
13808;DHT22;40769;51.512;5.494;2022-09-02T16:03:29;33.90;48.60
13808;DHT22;40769;51.512;5.494;2022-09-02T16:06:03;33.90;49.20
13808;DHT22;40769;51.512;5.494;2022-09-02T16:08:29;33.90;49.10
13808;DHT22;40769;51.512;5.494;2022-09-02T16:10:55;34.00;49.40
13808;DHT22;40769;51.512;5.494;2022-09-02T16:13:20;34.10;49.90
13808;DHT22;40769;51.512;5.494;2022-09-02T16:15:46;34.20;49.30
13808;DHT22;40769;51.512;5.494;2022-09-02T16:18:12;34.20;49.20
13808;DHT22;40769;51.512;5.494;2022-09-02T16:20:38;34.30;49.10
13808;DHT22;40769;51.512;5.494;2022-09-02T16:23:04;34.30;49.00
13808;DHT22;40769;51.512;5.494;2022-09-02T16:25:29;34.30;48.60
13808;DHT22;40769;51.512;5.494;2022-09-02T16:27:55;34.20;48.70
13808;DHT22;40769;51.512;5.494;2022-09-02T16:30:21;34.20;48.30
13808;DHT22;40769;51.512;5.494;2022-09-02T16:32:48;34.00;48.40
13808;DHT22;40769;51.512;5.494;2022-09-02T16:35:16;34.00;48.30
13808;DHT22;40769;51.512;5.494;2022-09-02T16:37:41;33.90;48.10
13808;DHT22;40769;51.512;5.494;2022-09-02T16:40:07;33.80;48.00
13808;DHT22;40769;51.512;5.494;2022-09-02T16:42:33;33.70;48.60
13808;DHT22;40769;51.512;5.494;2022-09-02T16:44:59;33.60;48.80
13808;DHT22;40769;51.512;5.494;2022-09-02T16:47:24;33.50;48.90
13808;DHT22;40769;51.512;5.494;2022-09-02T16:49:51;33.40;48.70
13808;DHT22;40769;51.512;5.494;2022-09-02T16:52:16;33.30;49.30
13808;DHT22;40769;51.512;5.494;2022-09-02T16:54:42;33.10;49.20
13808;DHT22;40769;51.512;5.494;2022-09-02T16:57:08;33.00;49.20
13808;DHT22;40769;51.512;5.494;2022-09-02T16:59:34;32.90;49.20
13808;DHT22;40769;51.512;5.494;2022-09-02T17:02:00;32.80;49.20
13808;DHT22;40769;51.512;5.494;2022-09-02T17:04:25;32.70;49.50
13808;DHT22;40769;51.512;5.494;2022-09-02T17:06:51;32.60;49.70
13808;DHT22;40769;51.512;5.494;2022-09-02T17:09:17;32.40;49.80
13808;DHT22;40769;51.512;5.494;2022-09-02T17:11:43;32.30;50.00
13808;DHT22;40769;51.512;5.494;2022-09-02T17:14:10;32.20;49.80
13808;DHT22;40769;51.512;5.494;2022-09-02T17:16:39;32.10;50.00
13808;DHT22;40769;51.512;5.494;2022-09-02T17:19:06;31.90;50.00
13808;DHT22;40769;51.512;5.494;2022-09-02T17:21:33;31.70;50.00
13808;DHT22;40769;51.512;5.494;2022-09-02T17:24:00;31.60;49.80
13808;DHT22;40769;51.512;5.494;2022-09-02T17:26:28;31.40;50.20
13808;DHT22;40769;51.512;5.494;2022-09-02T17:28:55;31.20;50.30
13808;DHT22;40769;51.512;5.494;2022-09-02T17:33:48;30.80;50.80
13808;DHT22;40769;51.512;5.494;2022-09-02T17:36:14;30.40;51.10
13808;DHT22;40769;51.512;5.494;2022-09-02T17:38:40;30.10;51.40
13808;DHT22;40769;51.512;5.494;2022-09-02T17:41:06;29.80;51.60
13808;DHT22;40769;51.512;5.494;2022-09-02T17:43:51;29.60;52.00